Date,TemperatureHighF,TemperatureAvgF,TemperatureLowF,DewpointHighF,DewpointAvgF,DewpointLowF,HumidityHigh,HumidityAvg,HumidityLow,PressureMaxIn,PressureMinIn,WindSpeedMaxMPH,WindSpeedAvgMPH,GustSpeedMaxMPH,PrecipitationSumIn
2013-1-1,19.9,14.5,9.7,3.0,-3.0,-7.6,51,45,36,29.38,29.20,13,5,13,0.00
2013-1-2,30.0,19.6,7.2,12.4,1.9,-10.2,55,45,42,29.29,29.15,17,7,17,0.00
2013-1-3,31.1,24.4,11.8,18.8,9.7,-1.4,65,53,40,29.44,29.18,15,6,15,0.04
2013-1-4,33.6,22.7,10.4,15.1,8.3,-2.6,64,54,45,29.41,29.29,14,7,14,0.00
2013-1-5,39.4,30.6,20.3,28.2,19.8,9.0,73,64,52,29.32,29.03,17,7,17,0.00
2013-1-6,35.1,23.7,17.4,25.2,9.6,4.7,67,55,45,29.44,29.03,24,8,24,0.00
2013-1-7,39.4,28.5,17.8,17.6,13.2,5.9,68,53,36,29.38,29.12,24,9,24,0.00
2013-1-8,44.1,35.4,27.0,22.5,19.2,15.7,63,52,39,29.20,29.06,20,8,20,0.00
2013-1-9,47.1,37.1,29.8,25.4,20.4,15.1,68,52,32,29.59,29.12,17,6,17,0.00
2013-1-10,44.6,37.5,29.3,42.7,22.3,9.6,95,58,26,29.59,28.88,17,6,17,0.76
2013-1-11,55.9,49.8,44.6,48.0,43.3,39.5,94,79,62,28.88,28.70,26,10,26,0.21
2013-1-12,52.2,36.8,21.9,39.8,22.3,11.4,71,56,41,29.09,28.76,21,10,21,0.00
2013-1-13,21.9,17.1,8.8,13.0,0.8,-6.9,68,48,39,29.38,29.00,21,9,21,0.00
2013-1-14,23.4,14.1,7.3,3.0,-3.3,-8.3,55,45,37,29.56,29.35,9,3,9,0.00
2013-1-15,30.2,18.7,9.7,7.0,0.0,-6.5,56,44,33,29.50,29.20,9,2,9,0.00
2013-1-16,36.7,26.2,13.3,20.1,8.8,-1.4,56,48,36,29.20,28.91,24,6,24,0.00
2013-1-17,33.8,26.7,20.7,25.7,8.7,0.8,72,47,31,29.53,29.15,16,5,16,0.00
2013-1-18,46.0,34.2,20.8,21.9,15.1,5.5,54,46,35,29.50,29.00,28,11,28,0.08
2013-1-19,50.2,40.4,25.5,27.0,20.4,-0.3,54,45,31,29.20,28.88,36,11,36,0.00
2013-1-20,25.3,17.2,12.6,2.8,-2.1,-5.2,53,42,32,29.44,29.20,26,11,26,0.00
2013-1-21,13.3,7.2,3.0,-1.5,-7.1,-11.1,51,51,51,29.44,29.29,30,13,30,0.00
2013-1-22,15.1,8.0,-0.6,-1.0,-11.3,-14.5,51,42,29,29.50,29.38,15,6,15,0.00
2013-1-23,33.1,20.7,12.0,4.3,-3.4,-12.6,42,34,25,29.44,29.12,23,8,23,0.00
2013-1-24,23.5,15.6,6.1,-2.8,-9.0,-14.1,38,33,24,29.71,29.35,14,7,14,0.00
2013-1-25,37.0,26.9,16.7,9.3,1.6,-5.7,44,33,27,29.35,29.06,20,8,20,0.00
2013-1-26,30.7,20.7,9.1,2.6,-2.3,-8.4,47,36,25,29.47,29.32,15,5,15,0.00
2013-1-27,42.3,32.6,27.3,39.8,20.3,2.4,91,63,33,29.38,28.91,20,9,20,0.04
2013-1-28,55.9,49.0,42.4,55.4,45.3,39.9,98,87,73,29.03,28.76,22,7,22,0.04
2013-1-29,63.0,55.1,39.4,56.6,50.3,35.2,96,84,71,28.79,28.50,24,9,24,1.05
2013-1-30,39.4,29.4,16.0,35.2,21.0,1.4,89,71,50,28.85,28.29,31,13,31,0.33
2013-1-31,20.3,16.0,12.6,7.5,1.1,-4.8,58,51,43,29.03,28.82,21,12,21,0.00
2013-2-5,39.6,31.4,18.3,21.4,17.1,6.7,65,55,43,29.18,28.88,15,6,18,0.00
2013-2-6,45.7,34.7,22.5,25.6,20.1,13.5,73,56,38,29.29,29.06,12,4,15,0.00
2013-2-7,39.2,36.5,33.3,32.9,30.9,26.0,84,80,65,29.12,28.91,15,7,15,0.21
2013-2-8,33.3,29.6,26.8,26.2,16.3,12.8,75,58,47,29.47,29.12,17,7,17,0.00
2013-2-9,37.6,31.7,26.6,25.6,18.2,14.2,72,58,41,29.47,29.06,24,8,24,0.00
2013-2-10,49.1,41.6,35.1,44.8,33.5,20.3,90,75,39,29.09,28.47,28,14,28,0.41
2013-2-11,38.7,33.3,29.1,21.6,13.8,11.9,51,44,40,29.18,28.67,31,15,31,0.00
2013-2-12,39.0,31.6,27.5,16.0,14.2,12.0,60,49,34,29.20,28.91,15,6,15,0.00
2013-2-13,45.9,35.0,26.1,22.9,19.2,15.3,68,53,37,28.97,28.79,14,5,14,0.00
2013-2-14,41.9,36.8,32.2,26.5,21.2,17.2,75,54,39,29.09,28.73,23,9,23,0.00
2013-2-15,33.6,25.9,19.4,20.1,5.0,-2.1,64,42,25,29.35,29.09,22,10,22,0.00
2013-2-16,27.9,19.4,11.1,3.8,-0.5,-5.7,51,41,32,29.32,29.18,20,7,20,0.00
2013-2-17,37.0,25.4,12.7,12.5,4.8,-1.6,52,42,30,29.26,28.91,25,8,25,0.00
2013-2-18,55.2,37.9,21.0,38.0,22.0,8.2,89,54,34,28.91,28.53,30,12,30,0.42
2013-2-19,21.9,16.4,9.3,8.2,-0.3,-7.3,58,47,38,29.35,28.82,25,12,25,0.00
2013-2-20,23.0,12.7,2.8,2.5,-4.7,-13.3,55,45,36,29.47,29.35,12,5,12,0.00
2013-2-21,29.7,21.7,11.1,20.7,9.5,-1.5,81,60,45,29.44,28.90,25,8,25,0.00
2013-2-22,37.0,30.1,25.2,28.1,18.0,9.5,83,62,42,29.03,28.79,17,7,17,0.00
2013-2-23,33.6,25.9,19.2,12.4,8.4,5.2,55,47,36,29.06,29.00,14,5,14,0.00
2013-2-24,38.1,27.2,15.1,15.8,10.3,2.9,61,49,35,29.20,29.06,9,3,9,0.16
2013-2-25,42.6,32.9,22.8,23.7,19.0,11.9,71,57,40,29.18,28.88,16,6,16,0.05
2013-2-26,35.2,33.2,30.4,31.3,25.2,18.5,95,73,52,28.91,28.56,31,9,31,0.00
2013-2-27,37.0,32.9,29.8,27.8,24.7,20.2,85,72,52,28.88,28.64,0,0,0,0.08
2013-2-28,41.5,34.6,31.6,26.6,23.2,18.0,78,64,41,29.18,28.88,13,3,13,0.20
2013-3-1,35.6,28.1,24.3,24.8,13.3,9.1,75,54,37,29.35,29.12,15,8,15,0.05
2013-3-2,29.7,22.0,13.8,9.4,3.7,-1.4,57,45,32,29.35,29.24,12,5,12,0.00
2013-3-3,33.6,22.7,10.2,8.7,1.8,-4.4,60,41,30,29.26,29.12,10,3,10,0.08
2013-3-4,38.3,31.7,25.9,21.3,14.1,1.3,69,49,34,29.15,28.94,22,9,22,0.08
2013-3-5,34.7,31.8,26.2,26.2,21.5,16.9,77,66,50,29.18,28.88,24,9,24,0.00
2013-3-6,35.2,27.3,21.2,18.8,12.3,9.6,69,54,39,29.47,29.18,15,8,15,0.00
2013-3-7,42.3,30.7,24.3,17.4,13.2,10.7,61,49,31,29.53,29.41,13,4,13,0.13
2013-3-8,44.1,35.3,25.3,23.8,19.1,14.4,71,52,38,29.50,29.29,20,8,20,0.04
2013-3-9,47.1,40.9,36.3,35.2,29.5,21.1,81,64,51,29.32,28.85,21,8,21,0.25
2013-3-10,52.3,46.4,43.3,46.6,41.1,31.6,89,82,60,28.88,28.64,15,5,15,0.87
2013-3-11,43.3,35.6,30.0,39.2,28.4,16.0,88,75,55,29.00,28.67,21,9,21,0.08
2013-3-12,40.3,30.5,24.6,26.0,16.3,7.3,72,56,40,29.20,28.97,28,11,28,0.00
2013-3-13,35.4,27.5,21.4,11.3,7.5,2.2,59,44,25,29.47,29.20,22,10,22,0.00
2013-3-14,46.6,34.4,22.8,19.6,14.0,6.7,56,44,28,29.44,29.15,21,6,21,0.00
2013-3-15,55.2,41.1,30.4,31.4,24.8,19.6,75,54,30,29.15,28.73,10,4,10,0.00
2013-3-16,41.5,35.7,32.0,31.6,23.8,14.7,90,64,39,29.20,28.73,15,7,15,0.00
2013-3-17,39.0,32.9,27.0,18.9,13.9,8.6,59,46,32,29.26,28.97,17,9,17,0.00
2013-3-18,38.3,32.1,19.8,29.2,19.2,0.3,80,60,38,29.03,28.73,37,12,37,0.04
2013-3-19,37.4,26.9,17.6,8.6,2.0,-2.0,45,35,21,29.26,28.97,28,12,28,0.00
2013-3-20,28.2,22.1,13.3,8.4,-2.2,-8.2,50,35,23,29.26,29.12,31,15,31,0.00
2013-3-21,34.5,23.0,10.4,2.5,-2.1,-7.2,48,34,22,29.15,29.03,14,4,14,0.00
2013-3-22,43.5,30.6,17.4,11.9,4.8,1.4,54,35,20,29.15,29.03,10,3,10,0.00
2013-3-23,46.6,37.0,27.9,20.6,10.7,5.2,63,35,19,29.18,29.00,17,6,17,0.00
2013-3-24,35.6,31.5,29.1,25.9,23.9,20.6,84,73,61,29.09,28.73,18,10,18,0.00
2013-3-25,40.5,33.2,28.2,24.2,16.5,12.6,80,51,35,29.24,28.85,17,8,17,0.25
2013-3-26,42.1,34.5,26.1,17.6,14.6,10.5,59,45,29,29.41,29.24,18,7,18,0.08
2013-3-27,47.5,35.7,29.5,16.7,13.7,9.9,56,42,22,29.47,29.35,12,4,12,0.00
2013-3-28,52.3,39.9,26.1,20.1,15.5,10.5,54,38,24,29.47,29.35,11,3,11,0.00
2013-3-29,57.6,45.5,31.8,23.5,16.3,10.8,58,33,17,29.41,29.29,12,3,12,0.00
2013-3-30,61.5,48.6,37.0,37.4,25.6,15.8,67,42,24,29.32,28.94,23,7,23,0.00
2013-3-31,60.6,49.1,37.4,40.4,27.1,7.6,79,47,17,29.06,28.88,28,10,28,0.00
2013-4-1,41.7,34.1,25.7,15.1,7.3,-0.2,57,34,21,29.35,29.06,24,10,24,0.00
2013-4-2,46.4,32.5,20.5,13.2,4.7,0.6,50,33,17,29.47,29.35,22,6,22,0.00
2013-4-3,51.1,36.5,21.7,10.2,4.0,-2.5,45,27,16,29.56,29.38,13,4,13,0.00
2013-4-4,60.1,46.3,30.4,16.8,9.3,-0.2,34,23,17,29.38,29.06,14,4,14,0.00
2013-4-5,59.7,47.6,33.6,21.1,14.7,4.0,52,29,16,29.32,29.12,17,6,17,0.00
2013-4-6,72.1,57.4,43.7,39.6,18.8,5.2,58,24,14,29.15,28.67,41,12,41,0.21
2013-4-7,68.0,54.0,38.1,37.3,30.8,23.6,73,45,20,29.06,28.82,17,4,17,0.05
2013-4-8,73.4,63.2,53.1,55.1,43.1,25.0,93,51,28,29.00,28.67,28,6,28,0.84
2013-4-9,79.9,65.7,48.2,52.0,46.5,37.3,76,53,27,29.00,28.88,22,9,22,0.00
2013-4-10,49.6,44.6,40.1,43.1,39.5,36.3,92,82,68,29.03,28.68,28,12,28,1.71
2013-4-11,52.2,45.2,37.6,44.8,36.7,22.0,92,73,52,28.76,28.67,22,6,22,0.04
2013-4-12,45.3,39.9,35.1,33.0,25.4,16.8,78,57,39,29.03,28.64,24,8,24,0.04
2013-4-13,53.2,45.0,34.7,26.1,19.4,12.0,62,37,26,29.12,28.97,20,7,20,0.00
2013-4-14,76.1,60.1,44.8,47.4,29.7,22.3,73,34,15,29.03,28.64,40,11,40,0.47
2013-4-15,66.6,54.4,42.4,50.7,38.2,27.5,80,56,28,29.12,28.76,20,5,20,0.50
2013-4-16,54.3,46.2,36.0,32.6,26.4,18.9,71,48,27,29.35,29.09,13,6,13,0.00
2013-4-17,59.0,47.3,43.3,58.3,38.2,24.3,98,73,44,29.35,28.79,33,10,33,1.87
2013-4-18,65.7,53.1,38.1,63.9,47.6,21.1,98,83,50,28.85,28.50,29,11,29,2.96
2013-4-19,41.5,37.5,34.5,22.4,18.8,13.8,56,47,38,29.15,28.67,27,14,27,0.00
2013-4-20,51.3,40.3,28.6,22.7,15.4,7.3,64,39,19,29.50,29.15,13,5,13,0.00
2013-4-21,59.9,48.7,37.4,27.9,20.8,15.0,42,34,25,29.56,29.35,24,10,24,0.00
2013-4-22,70.2,58.0,43.0,37.2,24.6,17.3,49,30,14,29.38,29.09,20,8,20,0.00
2013-4-23,55.9,44.2,36.7,43.1,35.2,28.9,79,71,47,29.15,29.03,17,7,17,0.46
2013-4-24,51.8,43.2,35.8,30.2,21.2,14.1,74,45,23,29.26,29.06,18,8,18,0.04
2013-4-25,56.1,47.2,37.9,28.2,17.2,10.3,60,32,17,29.44,29.20,28,9,28,0.00
2013-4-26,68.4,55.3,42.1,34.2,27.2,17.1,52,35,23,29.44,29.35,26,9,26,0.00
2013-4-27,69.8,56.4,43.7,42.9,34.4,26.2,75,47,22,29.44,29.09,15,4,15,0.00
2013-4-28,74.7,61.5,51.3,44.2,38.3,29.1,74,47,22,29.09,28.91,9,4,9,0.00
2013-4-29,80.2,65.6,48.6,48.4,42.7,36.1,75,47,24,29.00,28.79,23,10,23,0.00
2013-4-30,86.5,73.7,60.6,57.3,41.0,27.0,76,37,13,29.03,28.82,29,10,29,0.00
2013-5-1,85.3,74.7,61.3,45.9,35.6,24.6,50,27,13,29.24,29.00,17,6,17,0.00
2013-5-2,66.9,54.7,42.6,39.7,33.6,27.1,77,46,26,29.32,29.20,17,9,17,0.04
2013-5-3,56.1,46.4,40.6,54.2,42.7,35.6,94,87,76,29.24,28.91,17,8,17,2.42
2013-5-4,71.1,60.8,55.6,56.5,50.8,41.0,91,72,36,29.18,28.94,15,5,15,0.08
2013-5-5,75.2,62.3,51.2,53.7,40.9,23.0,88,53,16,29.15,29.03,16,5,16,0.00
2013-5-6,76.3,65.6,55.4,45.6,34.0,19.5,66,35,13,29.15,29.06,15,5,15,0.00
2013-5-7,79.3,68.3,58.8,29.8,24.5,18.4,32,20,12,29.15,29.06,7,1,7,0.00
2013-5-8,86.7,71.3,52.9,41.6,29.5,21.9,49,24,11,29.15,29.03,10,2,10,0.00
2013-5-9,73.0,64.9,61.2,57.6,51.8,41.5,83,64,40,29.12,28.94,13,3,13,0.92
2013-5-10,61.2,56.9,50.9,57.1,51.1,43.3,87,81,75,29.03,28.91,13,6,13,0.00
2013-5-11,60.6,52.5,41.0,47.4,23.2,6.3,89,39,17,29.24,29.00,20,7,31,0.00
2013-5-12,59.2,53.6,40.6,15.6,13.2,9.1,34,20,17,29.32,29.20,25,7,25,0.00
2013-5-13,73.9,58.6,39.7,26.0,19.2,14.8,41,24,13,29.32,29.06,12,3,12,0.00
2013-5-14,91.4,74.5,55.2,43.4,36.8,25.2,46,27,14,29.09,28.79,22,6,22,0.00
2013-5-15,86.5,75.3,61.0,47.6,35.8,23.0,43,26,11,29.00,28.85,16,4,16,0.00
2013-5-16,84.6,72.6,60.8,47.3,36.3,22.7,50,29,11,29.06,28.91,15,3,15,0.00
2013-5-17,85.8,73.4,61.2,55.0,46.4,35.7,63,41,20,29.12,29.03,15,4,15,0.00
2013-5-18,84.4,74.8,64.8,60.9,50.7,42.0,80,46,23,29.15,29.00,16,5,16,0.00
2013-5-19,89.2,75.0,64.4,61.4,53.3,34.4,69,50,20,29.03,28.79,31,9,31,0.29
2013-5-20,83.1,72.5,62.8,59.6,50.9,41.2,82,50,24,28.91,28.73,24,8,24,0.63
2013-5-21,81.7,71.6,61.5,60.7,49.7,40.4,84,50,25,28.85,28.76,20,6,20,0.00
2013-5-22,74.7,65.9,59.9,52.5,45.5,35.8,69,50,26,28.94,28.73,17,5,17,0.00
2013-5-23,68.0,60.1,51.6,53.0,42.9,30.1,83,56,25,29.41,28.88,17,6,17,0.04
2013-5-24,68.7,56.7,42.1,39.8,27.8,17.1,74,38,15,29.59,29.35,13,4,13,0.00
2013-5-25,56.1,52.0,47.5,44.4,35.9,26.1,76,56,33,29.53,29.35,15,6,15,0.41
2013-5-26,68.4,57.2,51.1,56.6,48.3,42.7,89,73,45,29.38,29.15,24,7,24,3.31
2013-5-27,74.3,65.8,58.8,60.8,56.8,53.5,91,74,51,29.15,28.91,17,6,17,0.00
2013-5-28,81.5,70.3,64.9,65.6,60.3,56.1,87,72,45,29.03,28.82,24,6,24,2.81
2013-5-29,86.9,75.1,62.1,60.7,54.9,49.4,84,53,29,29.06,28.91,26,7,26,0.21
2013-5-30,87.8,74.5,63.5,59.6,54.8,43.2,85,53,29,28.97,28.85,33,11,33,0.74
2013-5-31,75.0,68.0,62.8,65.1,59.3,49.7,88,74,56,28.97,28.79,22,6,22,0.29
2013-6-1,79.5,69.4,63.1,65.1,54.2,38.8,85,62,25,28.91,28.76,17,6,17,0.00
2013-6-2,66.9,61.4,52.7,53.2,42.5,34.4,72,51,33,29.15,28.88,20,6,20,0.00
2013-6-3,70.7,62.0,47.8,50.6,34.7,24.3,78,40,20,29.26,29.09,11,4,11,0.00
2013-6-4,78.1,66.2,52.2,43.1,35.7,29.6,59,35,18,29.26,29.12,20,5,20,0.00
2013-6-5,80.2,68.1,57.9,52.8,44.2,35.6,75,45,21,29.18,28.97,12,4,12,0.04
2013-6-6,72.4,63.5,58.1,54.6,49.8,45.0,82,63,40,29.03,28.97,8,4,8,0.21
2013-6-7,76.1,65.7,54.0,52.7,41.6,32.9,80,46,22,29.06,29.00,13,3,13,0.00
2013-6-8,82.0,69.6,55.2,42.8,37.2,30.3,55,33,17,29.09,29.00,13,4,13,0.00
2013-6-9,83.5,69.3,62.1,56.3,48.4,38.4,74,49,24,29.06,28.88,17,6,17,0.00
2013-6-10,82.8,69.9,60.6,58.3,50.0,40.1,82,53,24,29.03,28.85,13,3,13,0.00
2013-6-11,87.4,76.0,61.2,60.6,53.4,47.6,73,48,27,29.06,28.94,16,3,16,0.00
2013-6-12,96.3,85.9,69.4,61.2,54.9,45.0,68,37,18,29.03,28.70,20,6,20,0.00
2013-6-13,85.3,77.4,66.4,58.8,42.0,28.0,71,32,13,29.15,28.73,20,5,20,0.00
2013-6-14,85.5,72.5,59.4,46.5,42.2,36.1,59,36,18,29.26,29.09,13,3,13,0.00
2013-6-15,84.2,73.5,66.9,64.7,55.6,45.6,78,55,33,29.18,29.00,22,5,22,0.21
2013-6-16,85.5,74.2,65.1,63.2,56.0,48.4,83,56,30,29.12,29.00,10,2,10,0.00
2013-6-17,91.5,79.6,65.3,63.3,47.7,30.0,80,41,12,29.12,28.97,9,2,9,0.04
2013-6-18,83.8,73.8,64.6,57.3,44.8,35.8,72,38,20,29.15,29.00,14,5,14,0.00
2013-6-19,87.3,73.1,56.7,46.1,39.6,28.4,57,32,13,29.20,29.12,12,3,12,0.00
2013-6-20,91.4,79.8,63.9,51.6,44.6,36.0,54,32,15,29.26,29.12,15,5,15,0.00
2013-6-21,94.6,78.0,69.4,61.7,55.1,38.7,72,47,19,29.24,29.03,26,8,26,0.25
2013-6-22,96.8,81.3,72.3,66.9,59.9,54.0,73,50,25,29.18,29.03,22,7,22,0.00
2013-6-23,94.3,76.1,68.5,64.3,57.4,48.5,75,55,24,29.15,28.94,23,5,23,1.51
2013-6-24,89.6,73.0,67.5,63.4,59.8,49.0,82,66,29,29.26,29.00,29,6,29,0.54
2013-6-25,90.3,79.1,68.4,70.0,62.3,55.4,88,60,33,29.06,28.91,15,5,15,0.00
2013-6-26,90.3,78.5,67.6,68.0,62.0,55.5,82,60,32,28.94,28.82,15,4,15,0.29
2013-6-27,92.7,81.5,70.9,68.8,57.0,47.4,81,48,22,29.00,28.85,17,6,17,0.00
2013-6-28,86.2,77.1,65.7,59.0,46.7,36.8,72,39,18,28.91,28.76,24,8,24,0.00
2013-6-29,77.7,68.7,64.2,60.5,54.6,46.9,80,62,39,28.94,28.76,15,5,15,0.54
2013-6-30,80.6,70.5,61.3,58.3,48.9,39.0,82,51,25,29.12,28.91,15,5,15,0.00
2013-7-1,80.1,69.5,57.4,42.5,35.3,25.2,56,32,15,29.18,29.09,17,6,17,0.00
2013-7-2,80.6,69.7,56.7,46.2,37.9,30.3,63,34,17,29.20,29.12,15,4,15,0.00
2013-7-3,82.2,70.2,57.6,50.6,38.4,26.5,67,35,14,29.20,29.12,8,2,8,0.00
2013-7-4,89.2,76.8,62.4,54.7,43.9,37.5,65,34,18,29.24,29.12,13,4,13,0.00
2013-7-5,89.1,78.6,65.1,57.9,46.4,35.6,68,36,16,29.24,29.09,15,5,15,0.00
2013-7-6,91.2,78.3,65.8,60.0,51.2,40.5,70,42,18,29.18,29.06,15,4,15,0.00
2013-7-7,93.0,82.1,68.7,60.3,54.2,45.6,70,42,20,29.12,29.03,14,4,14,0.00
2013-7-8,91.4,80.3,71.8,65.9,60.6,53.0,77,53,29,29.15,29.06,20,4,20,0.43
2013-7-9,93.0,83.4,76.1,68.3,63.9,56.5,74,54,32,29.15,29.00,12,3,12,0.00
2013-7-10,88.7,80.4,63.5,69.1,54.2,42.3,75,44,21,29.20,28.97,18,4,18,0.00
2013-7-11,82.6,73.1,61.9,55.9,43.7,32.3,70,39,17,29.24,29.15,10,2,10,0.00
2013-7-12,85.6,74.6,60.1,48.7,39.6,31.7,56,31,16,29.29,29.18,11,2,11,0.00
2013-7-13,86.7,76.2,61.7,52.7,42.9,38.0,59,33,19,29.26,29.18,12,3,12,0.00
2013-7-14,91.2,80.8,67.8,59.4,50.4,41.6,67,38,19,29.32,29.20,17,4,17,0.00
2013-7-15,95.7,83.0,71.4,65.8,58.8,49.1,75,47,22,29.41,29.29,12,3,12,0.00
2013-7-16,95.9,85.8,74.3,72.6,60.5,52.9,80,46,24,29.44,29.35,12,3,12,0.00
2013-7-17,98.1,86.8,73.9,67.7,58.3,44.8,70,42,17,29.47,29.32,9,2,9,0.00
2013-7-18,98.2,87.8,76.3,68.0,58.6,48.1,67,41,20,29.35,29.09,8,2,8,0.00
2013-7-19,97.3,88.0,77.2,63.9,54.3,43.9,61,35,17,29.12,28.88,17,4,17,0.00
2013-7-20,89.1,80.8,71.1,63.3,50.2,38.6,66,38,18,29.06,28.94,10,3,10,0.04
2013-7-21,88.3,77.4,68.4,66.4,57.7,51.2,76,53,29,29.06,28.94,13,3,13,0.00
2013-7-22,92.1,78.3,65.8,64.2,57.3,47.6,78,52,27,29.03,28.85,23,3,23,0.04
2013-7-23,84.4,73.0,64.8,62.5,52.3,38.8,81,52,25,29.09,28.88,12,4,12,0.00
2013-7-24,77.2,68.1,57.9,55.8,42.1,32.6,80,43,21,29.20,29.09,12,3,12,0.00
2013-7-25,87.1,72.8,58.1,50.9,43.0,36.5,64,38,19,29.26,29.15,12,3,12,0.00
2013-7-26,81.7,69.2,59.9,62.7,54.3,45.4,81,60,35,29.18,29.06,14,4,14,1.85
2013-7-27,70.9,63.0,56.1,53.5,40.9,29.4,82,49,23,29.09,29.06,20,7,20,0.00
2013-7-28,75.4,64.4,53.6,42.5,37.9,32.1,61,40,22,29.18,29.00,16,5,16,0.00
2013-7-29,82.8,68.4,53.6,50.0,40.1,31.7,71,40,16,29.29,29.15,12,2,12,0.00
2013-7-30,70.0,67.6,64.0,65.0,56.5,42.6,87,69,41,29.26,29.18,15,5,15,0.50
2013-7-31,80.8,72.4,67.1,65.4,59.3,50.5,89,67,36,29.24,29.12,11,3,11,0.04
2013-8-1,84.7,74.0,61.9,61.3,50.5,38.2,85,49,20,29.20,29.06,13,3,13,0.00
2013-8-2,89.6,78.0,68.2,61.1,52.9,43.4,62,44,21,29.09,29.00,13,4,13,0.00
2013-8-3,81.5,73.0,62.8,56.1,45.5,35.1,71,41,20,29.26,29.06,9,3,9,0.00
2013-8-4,82.6,71.3,58.6,50.8,41.6,31.6,67,38,17,29.32,29.20,9,2,9,0.00
2013-8-5,79.0,69.9,61.7,59.8,52.1,41.8,72,54,41,29.24,29.00,15,5,15,0.00
2013-8-6,92.8,78.4,68.0,66.6,61.4,53.3,85,60,27,29.06,28.91,12,3,12,0.00
2013-8-7,90.9,79.6,66.9,68.1,59.5,47.6,79,54,25,29.09,28.91,13,4,13,0.00
2013-8-8,82.8,73.3,63.9,58.7,53.0,46.7,79,52,30,29.15,29.06,9,4,9,0.00
2013-8-9,88.0,75.7,63.1,58.7,51.9,42.4,73,47,21,29.24,29.12,9,3,9,0.00
2013-8-10,81.3,71.3,61.0,54.6,45.1,34.9,71,43,20,29.32,29.20,13,3,13,0.00
2013-8-11,88.7,74.7,61.5,54.1,46.8,39.6,57,40,20,29.29,29.15,10,2,10,0.00
2013-8-12,86.5,75.6,66.2,57.7,52.3,47.1,69,46,29,29.20,29.03,13,4,13,0.00
2013-8-13,75.4,66.6,57.0,53.3,41.2,30.0,73,43,20,29.26,29.09,13,4,13,0.00
2013-8-14,77.5,64.7,51.6,43.6,35.7,24.3,64,38,15,29.35,29.24,12,2,12,0.00
2013-8-15,79.0,68.3,58.8,47.1,39.4,32.1,53,37,20,29.32,29.20,7,2,7,0.00
2013-8-16,81.1,69.1,57.0,47.9,41.1,31.3,64,40,17,29.32,29.24,10,2,10,0.00
2013-8-17,82.2,69.7,57.4,51.2,42.5,34.7,72,42,20,29.38,29.29,15,3,15,0.00
2013-8-18,83.1,70.6,57.9,52.6,44.9,35.2,72,44,20,29.35,29.24,9,2,9,0.00
2013-8-19,88.7,75.1,63.0,55.3,49.1,40.7,63,43,19,29.26,29.15,13,2,13,0.00
2013-8-20,90.1,77.1,65.7,59.1,52.7,42.9,74,47,20,29.26,29.12,13,4,13,0.00
2013-8-21,91.6,79.4,67.3,60.6,53.4,45.1,71,44,21,29.24,29.12,13,4,13,0.00
2013-8-22,86.4,76.6,69.6,60.6,56.4,51.6,71,51,34,29.26,29.15,17,4,17,0.00
2013-8-23,84.6,73.6,63.7,65.8,53.9,41.8,90,55,23,29.32,29.20,10,4,10,0.04
2013-8-24,89.6,76.8,63.1,57.4,51.5,46.4,63,43,25,29.38,29.26,11,4,11,0.00
2013-8-25,91.4,79.0,68.0,60.1,53.3,42.0,68,45,19,29.41,29.26,13,4,13,0.00
2013-8-26,97.2,81.1,67.6,62.9,54.5,45.1,66,44,18,29.32,29.12,10,3,10,0.00
2013-8-27,95.4,83.8,73.0,64.5,54.9,43.4,70,41,18,29.15,29.00,14,4,14,0.00
2013-8-28,96.6,81.6,72.7,68.7,57.8,46.8,73,47,26,29.12,29.03,12,4,12,0.00
2013-8-29,88.0,79.6,72.3,68.8,61.7,57.0,74,56,38,29.20,29.06,9,4,9,0.00
2013-8-30,97.9,84.2,72.1,70.8,59.0,44.9,82,49,17,29.09,28.88,14,4,14,0.00
2013-8-31,90.3,79.0,70.2,62.4,55.4,49.5,74,46,30,28.94,28.85,14,4,14,0.00
2013-9-1,91.2,77.3,66.2,67.2,54.9,42.5,86,52,19,29.00,28.82,17,4,17,0.00
2013-9-2,81.5,69.7,58.8,56.4,44.9,33.4,73,45,20,29.15,29.00,13,4,13,0.00
2013-9-3,78.6,65.7,53.2,53.2,42.4,33.9,79,48,21,29.24,29.12,8,2,8,0.00
2013-9-4,84.9,70.9,56.5,51.9,41.7,31.8,65,39,16,29.29,29.18,9,2,9,0.00
2013-9-5,90.9,76.6,66.0,55.9,44.8,37.7,50,35,18,29.35,29.26,10,3,10,0.00
2013-9-6,88.3,74.8,60.8,50.5,44.3,39.1,52,36,19,29.35,29.12,14,4,14,0.00
2013-9-7,93.6,78.4,65.1,57.2,51.0,41.6,65,42,19,29.15,29.00,12,4,12,0.00
2013-9-8,88.5,78.7,70.7,64.0,58.3,51.7,78,52,30,29.09,28.94,15,5,15,0.00
2013-9-9,96.4,82.7,71.4,69.4,58.1,46.9,84,49,19,29.03,28.38,12,5,12,0.00
2013-9-10,96.3,82.8,71.1,54.4,46.7,31.8,48,31,11,28.44,28.08,13,4,13,0.00
2013-9-11,77.0,76.2,74.5,52.9,51.2,49.9,44,42,40,28.14,27.76,7,2,7,0.00
2013-9-12,74.5,74.5,74.5,50.5,50.5,50.5,43,43,43,27.85,27.85,0,0,1,0.00
2013-9-13,74.5,74.5,74.5,50.5,50.5,50.5,43,43,43,27.85,27.85,1,1,0,0.00
2013-9-14,74.5,71.8,57.0,50.5,47.1,27.4,43,42,26,29.15,27.85,8,1,8,0.00
2013-9-15,69.1,60.5,55.8,55.1,45.4,31.5,77,59,38,29.32,29.06,13,5,13,1.30
2013-9-16,70.3,60.2,52.3,52.7,40.8,30.2,87,53,24,29.50,29.32,15,5,15,0.00
2013-9-17,75.2,62.1,49.3,47.6,42.6,37.2,79,51,31,29.44,29.20,13,5,13,0.00
2013-9-18,87.8,73.4,61.9,60.9,52.1,45.4,67,49,30,29.24,29.03,18,7,18,0.00
2013-9-19,93.2,78.9,68.9,62.2,56.3,42.2,76,50,18,29.09,28.88,17,6,17,0.50
2013-9-20,72.3,66.9,57.0,63.0,48.6,30.6,84,56,22,29.03,28.94,16,6,16,0.04
2013-9-21,70.0,59.2,48.7,47.8,37.0,28.5,78,48,22,29.09,29.00,17,5,17,0.00
2013-9-22,71.1,58.9,48.4,42.1,35.3,28.3,69,45,22,29.15,29.03,9,3,9,0.00
2013-9-23,73.4,60.6,47.8,41.6,35.4,27.4,71,43,19,29.18,29.03,13,5,13,0.00
2013-9-24,77.4,63.4,51.1,42.8,37.8,32.4,66,41,21,29.09,28.94,17,5,17,0.00
2013-9-25,77.7,65.1,52.7,46.6,40.2,33.9,73,44,21,29.03,28.97,13,4,13,0.00
2013-9-26,82.2,67.3,55.2,47.7,42.7,36.9,71,44,21,29.18,29.03,13,4,13,0.00
2013-9-27,81.7,68.3,58.5,45.5,36.6,29.6,46,33,17,29.20,29.12,18,6,18,0.00
2013-9-28,82.9,67.9,59.4,60.2,47.5,38.1,70,50,27,29.15,29.00,26,7,26,0.00
2013-9-29,71.2,60.9,51.3,49.6,33.7,17.6,84,44,14,29.20,29.06,12,3,12,0.00
2013-9-30,57.6,57.6,57.6,26.3,26.3,26.3,30,30,30,29.09,28.94,15,4,15,0.00
2013-10-1,57.6,57.6,57.6,26.3,26.3,26.3,30,30,30,29.12,29.00,16,4,16,0.00
2013-10-2,57.6,57.6,57.6,26.3,26.3,26.3,30,30,30,29.20,29.06,13,3,13,0.00
2013-10-3,57.6,57.6,57.6,26.3,26.3,26.3,30,30,30,29.09,28.94,17,5,17,0.38
2013-10-4,57.6,57.6,57.6,26.3,26.3,26.3,30,30,30,29.12,29.00,13,5,13,0.00
2013-10-5,57.6,57.6,57.6,26.3,26.3,26.3,30,30,30,29.03,28.91,12,4,12,0.04
2013-10-6,74.1,56.3,47.5,48.9,28.6,26.3,77,36,30,28.94,28.79,15,3,15,0.08
2013-10-7,68.2,56.4,45.3,49.2,44.2,39.5,90,66,42,29.20,28.91,10,4,10,0.13
2013-10-8,73.8,60.2,47.7,51.7,45.3,40.8,80,60,36,29.32,29.18,16,3,16,0.00
2013-10-9,70.7,58.7,47.8,50.0,44.9,42.5,85,62,37,29.32,29.18,11,3,11,0.00
2013-10-10,74.1,61.4,50.2,56.9,49.9,42.6,81,67,47,29.26,29.12,14,4,14,0.00
2013-10-11,75.7,65.0,55.8,60.2,54.2,52.3,93,70,46,29.15,28.97,23,7,23,0.00
2013-10-12,70.2,62.5,49.6,59.3,47.6,34.1,83,60,36,29.32,29.00,15,6,15,0.00
2013-10-13,64.8,52.4,41.4,39.9,33.3,28.4,68,50,33,29.56,29.32,10,3,10,0.00
2013-10-14,63.5,52.2,38.5,43.8,36.3,28.5,79,56,40,29.50,29.15,18,5,18,0.00
2013-10-15,70.0,58.7,46.4,61.6,48.1,37.1,90,69,47,29.15,28.88,21,7,21,0.04
2013-10-16,54.0,50.8,46.4,43.1,41.5,38.2,75,70,66,29.09,29.00,17,6,17,0.00
2013-10-17,61.2,51.9,46.9,47.0,40.3,33.0,87,66,39,29.09,28.94,15,3,15,0.00
2013-10-18,56.3,47.3,42.1,39.4,36.1,33.4,83,66,49,29.12,28.94,19,6,19,0.00
2013-10-19,57.4,47.1,35.8,38.3,34.7,31.1,84,64,41,29.09,28.91,16,4,16,0.00
2013-10-20,67.3,53.4,40.6,45.2,39.9,34.0,79,62,39,29.00,28.82,20,4,20,0.00
2013-10-21,54.7,43.7,33.8,44.1,29.6,20.9,76,58,40,29.15,28.94,23,6,23,0.00
2013-10-22,39.7,36.7,33.4,36.2,30.8,21.4,91,80,60,29.12,28.94,13,4,13,0.54
2013-10-23,46.0,37.9,28.9,34.5,30.5,25.0,93,76,51,29.20,29.06,14,6,14,0.00
2013-10-24,48.2,35.6,24.8,36.0,23.6,17.2,96,63,41,29.50,29.15,20,6,20,0.00
2013-10-25,60.4,40.6,23.7,37.3,25.2,17.9,85,58,33,29.56,29.20,14,4,14,0.00
2013-10-26,58.3,45.3,32.2,35.2,26.3,19.1,62,48,35,29.26,29.03,24,7,24,0.00
2013-10-27,62.1,43.0,27.0,35.8,26.2,19.8,76,54,35,29.24,29.06,12,3,12,0.00
2013-10-28,68.2,47.7,35.1,38.8,30.7,23.3,77,54,33,29.47,29.12,12,5,12,0.00
2013-10-29,60.4,46.5,34.9,49.4,37.8,30.8,92,73,46,29.44,29.20,10,5,10,0.00
2013-10-30,63.1,56.4,51.6,62.6,55.7,49.1,98,97,91,29.20,28.88,17,6,17,1.01
2013-10-31,63.1,55.3,42.3,62.6,54.8,41.7,98,98,98,28.88,28.44,18,7,18,0.58
2013-11-1,50.9,44.9,39.2,49.5,44.0,38.7,98,97,87,28.91,28.58,15,5,15,0.04
2013-11-2,55.9,41.4,29.7,48.0,36.7,27.9,98,85,55,29.29,28.88,21,6,21,0.00
2013-11-3,59.5,42.1,26.4,41.8,32.2,25.9,98,72,43,29.41,29.24,18,6,18,0.00
2013-11-4,61.3,49.8,43.3,45.8,37.1,33.5,73,63,46,29.91,29.15,28,12,28,0.00
2013-11-5,54.3,52.5,50.5,53.8,49.8,42.9,98,91,72,29.38,29.00,29,10,29,0.12
2013-11-6,56.3,41.4,26.2,55.7,40.6,25.6,98,97,88,29.38,28.91,25,10,25,0.26
2013-11-7,48.2,34.7,23.7,45.0,32.4,23.1,98,92,73,29.44,29.35,20,6,20,0.00
2013-11-8,49.3,39.3,23.7,40.8,31.7,23.2,98,76,55,29.44,29.00,29,9,29,0.00
2013-11-9,66.0,50.6,38.7,41.8,35.9,30.4,79,59,37,29.35,28.97,29,10,29,0.00
2013-11-10,57.6,41.1,28.4,35.7,28.8,23.8,85,63,40,29.56,29.35,13,6,13,0.00
2013-11-11,50.9,38.5,20.3,35.7,29.6,17.0,97,72,52,29.71,29.20,18,7,18,0.00
2013-11-12,37.2,22.0,12.6,28.3,15.5,9.2,88,77,55,29.91,29.71,14,4,14,0.08
2013-11-13,44.8,29.7,14.2,22.0,15.7,10.0,83,58,38,29.74,29.26,25,7,25,0.00
2013-11-14,56.3,42.6,30.7,29.5,21.7,15.0,60,44,36,29.26,29.00,23,8,23,0.00
2013-11-15,54.0,41.5,34.0,33.7,27.2,18.0,78,57,44,29.09,28.97,15,7,15,0.00
2013-11-16,58.8,52.1,38.8,57.4,50.0,33.4,98,93,79,28.97,28.58,29,12,29,0.04
2013-11-17,67.3,53.5,40.6,65.5,52.2,39.9,98,95,84,29.00,28.26,30,11,30,0.64
2013-11-18,50.7,38.2,24.3,40.6,32.5,21.4,98,82,51,29.41,29.00,21,9,21,0.00
2013-11-19,52.7,35.2,22.1,33.4,26.0,20.4,96,72,44,29.47,29.35,15,5,15,0.00
2013-11-20,41.0,37.2,32.7,39.2,32.9,23.5,98,85,61,29.35,29.09,22,10,22,0.24
2013-11-21,47.8,43.3,39.7,47.1,42.7,39.2,98,98,96,29.38,29.12,13,5,13,0.00
2013-11-22,40.3,40.3,40.3,39.8,39.8,39.8,98,98,98,29.68,29.38,18,8,18,0.04
2013-11-23,40.3,40.3,40.3,39.8,39.8,39.8,98,98,98,29.85,29.62,21,9,21,0.00
2013-11-24,40.3,40.3,40.3,39.8,39.8,39.8,98,98,98,29.85,29.47,14,5,14,0.00
2013-11-25,40.3,32.9,23.9,39.8,26.9,14.1,98,79,55,29.47,29.18,17,6,17,0.00
2013-11-26,34.9,25.8,12.9,27.8,17.0,3.0,89,70,47,29.35,29.15,24,8,24,0.00
2013-11-27,35.6,18.9,8.4,14.7,5.4,-1.3,69,56,41,29.41,29.29,15,5,15,0.00
2013-11-28,45.3,22.5,14.9,22.4,9.5,-1.7,77,58,40,29.62,29.20,17,6,17,0.00
2013-11-29,43.0,26.1,11.3,22.6,14.7,6.3,83,64,42,29.71,29.44,18,5,18,0.00
2013-11-30,55.4,37.0,26.1,34.5,26.4,19.0,84,67,44,29.44,29.12,8,7,10,0.00
2013-12-1,56.8,38.2,26.6,35.8,27.8,22.6,88,68,42,29.24,29.03,9,3,9,0.00
2013-12-2,47.1,38.9,31.1,36.6,32.1,23.4,94,77,60,29.03,28.73,15,6,15,0.00
2013-12-3,49.8,43.8,35.6,49.1,43.1,34.4,98,97,94,28.76,28.64,15,6,15,0.00
2013-12-4,58.8,47.4,28.6,51.3,46.5,25.1,98,97,68,28.91,28.53,23,8,23,0.00
2013-12-5,28.6,21.4,16.9,25.2,12.6,7.1,87,69,57,29.38,28.91,25,10,25,0.00
2013-12-6,18.7,13.2,6.8,7.6,1.9,-5.6,70,60,52,29.71,29.35,15,7,15,0.00
2013-12-7,26.6,10.2,0.3,8.8,-4.0,-11.7,63,52,45,29.83,29.62,10,4,10,0.00
2013-12-8,24.1,19.3,10.2,18.4,11.3,-5.4,86,71,49,29.62,29.06,16,6,16,0.00
2013-12-9,26.1,11.8,-4.7,18.1,2.3,-17.2,85,66,53,29.35,29.09,18,7,18,0.00
2013-12-10,30.0,15.0,-2.2,13.2,1.2,-14.8,61,54,45,29.38,29.09,24,7,24,0.00
2013-12-11,23.9,12.1,-3.8,13.8,-1.5,-19.9,77,54,45,29.71,29.29,13,10,13,0.00
2013-12-12,29.7,12.9,-3.5,13.7,-0.5,-19.5,76,55,45,29.68,29.24,13,9,13,0.00
2013-12-13,37.9,26.8,13.6,26.6,18.7,7.2,88,72,56,29.26,29.03,12,4,12,0.00
2013-12-14,31.6,25.6,16.3,29.0,23.6,14.7,98,92,80,29.15,29.00,15,7,15,0.00
2013-12-15,16.3,16.3,16.3,14.7,14.7,14.7,93,93,93,29.20,29.12,14,5,14,0.00
2013-12-16,18.1,17.3,15.1,15.7,15.2,12.7,93,91,90,29.20,29.06,10,3,10,0.00
2013-12-17,39.4,20.5,15.3,31.3,17.3,10.3,90,87,68,29.32,29.12,17,4,17,0.17
2013-12-18,43.5,26.2,10.4,26.4,17.8,8.3,91,73,47,29.29,28.88,26,9,26,0.04
2013-12-19,49.3,41.4,32.4,38.4,34.9,24.7,89,78,66,28.97,28.79,14,4,14,0.09
2013-12-20,36.5,31.5,27.3,33.3,30.5,26.8,98,96,88,28.94,28.76,15,6,15,0.08
2013-12-21,30.6,27.8,25.9,30.1,27.2,25.3,98,98,96,28.94,28.67,13,5,13,0.00
2013-12-22,31.8,25.7,14.5,31.3,24.2,12.4,98,94,90,29.29,28.67,13,6,13,0.00
2013-12-23,15.8,5.5,-4.7,13.6,0.4,-12.0,91,80,67,29.65,29.29,15,7,15,0.00
2013-12-24,17.4,5.1,-11.9,13.1,-1.3,-19.0,85,74,70,29.68,29.35,17,6,17,0.00
2013-12-25,28.2,23.8,17.6,25.4,21.0,13.1,94,89,82,29.38,29.26,15,6,15,0.00
2013-12-26,36.1,27.3,12.4,31.6,24.1,10.1,92,88,75,29.38,29.18,20,6,20,0.04
2013-12-27,39.9,35.8,33.1,33.9,31.9,30.5,91,86,78,29.38,29.20,15,6,15,0.21
2013-12-28,50.2,39.7,32.7,35.8,31.6,26.8,91,74,54,29.20,28.91,17,7,17,0.00
2013-12-29,36.5,20.2,-0.6,29.2,14.4,-8.0,93,78,70,29.35,28.91,28,12,28,0.00
2013-12-30,18.3,5.8,-4.9,5.5,-4.6,-12.4,70,62,53,29.41,29.24,13,4,13,0.00
2013-12-31,25.5,12.2,0.3,13.6,1.6,-12.1,75,62,55,29.44,29.26,17,5,17,0.00
2014-1-1,19.2,14.3,10.9,12.4,8.0,3.5,83,76,71,29.29,29.18,20,10,20,0.00
2014-1-2,21.4,9.4,-4.9,9.6,1.1,-15.3,83,69,54,29.53,29.20,18,8,18,0.00